首页
METAR-TAF:

METAR-TAF

机场 :

El Dorado, 阿肯色州, 美国

纬度: 33-13-15N, 经度: 092-48-48W, 海拔: 84米

当前天气观测

该预报发布于18分钟前的04:53 UTC
风速3节,风向
温度 -1°C
湿度 86%
气压 1030 hPa
能見度: 16.1公里
天空无云

METAR: KELD 220453Z AUTO 09003KT 10SM CLR M01/M03 A3043 RMK AO2 SLP304 T10061033 $

时间: 23:11 (05:11 UTC)

预报

该预报发布于5小时和26分钟前的23:45 UTC
预报有效从22日的 00点(UTC)到 22日的 24点(UTC)
风速5节,风向东转东北
能見度: 10公里
天空无云
从 22日的 1400点(UTC)
风速5节,风向东转东南
能見度: 10公里
多云层高于7000英尺
阴天层高于12000英尺
附近有阵雨
从 22日的 1700点(UTC)
风速7节,风向东南
能見度: 9.7公里
多云层高于4000英尺
阴天层高于7000英尺
小阵雨
从 22日的 2100点(UTC)
风速7节,风向东转东南
能見度: 6.4公里
阴天层高于700英尺
小雨, 轻雾

TAF: KELD 212345Z 2200/2224 07005KT P6SM SKC FM221400 12005KT P6SM VCSH BKN070 OVC120 FM221700 14007KT 6SM -SHRA BKN040 OVC070 FM222100 12007KT 4SM -RA BR OVC007

超过4000个机场的气象观测和天气预报(METAR&TAF报告)。

可查询的气象台以黄色和红色小点在地图上表示。

将鼠标移到小点上方,可查看气象台名称。

然后点击查看天气观测和预报。

如需切换地图:点击带黑十字的绿色按钮放大地图;点击带横线的绿色按钮缩小地图;或者点击绿色箭头查看邻近地区的地图。


METAR-TAF: